createdAt,value
2022-10-06T00:01:28.388Z,10.89
2022-10-06T00:03:54.762Z,10.88
2022-10-06T00:06:21.085Z,10.91
2022-10-06T00:08:47.490Z,10.85
2022-10-06T00:11:14.996Z,10.85
2022-10-06T00:13:41.850Z,10.79
2022-10-06T00:16:12.356Z,10.70
2022-10-06T00:18:38.815Z,10.68
2022-10-06T00:21:05.353Z,10.65
2022-10-06T00:23:31.951Z,10.71
2022-10-06T00:25:58.581Z,10.72
2022-10-06T00:28:25.636Z,10.73
2022-10-06T00:30:53.574Z,10.73
2022-10-06T00:33:20.093Z,10.70
2022-10-06T00:35:46.464Z,10.62
2022-10-06T00:38:13.633Z,10.63
2022-10-06T00:40:44.542Z,10.62
2022-10-06T00:43:30.804Z,10.60
2022-10-06T00:45:57.444Z,10.62
2022-10-06T00:48:25.961Z,10.62
2022-10-06T00:50:54.070Z,10.38
2022-10-06T00:53:21.198Z,10.52
2022-10-06T00:55:48.007Z,10.47
2022-10-06T00:58:14.832Z,10.48
2022-10-06T01:00:43.105Z,10.44
2022-10-06T01:03:12.034Z,10.40
2022-10-06T01:05:43.600Z,10.39
2022-10-06T01:08:09.945Z,10.44
2022-10-06T01:10:36.282Z,10.42
2022-10-06T01:13:02.773Z,10.35
2022-10-06T01:15:29.245Z,10.36
2022-10-06T01:18:01.093Z,10.35
2022-10-06T01:20:29.339Z,10.16
2022-10-06T01:22:57.495Z,10.18
2022-10-06T01:25:23.992Z,10.20
2022-10-06T01:27:53.709Z,10.20
2022-10-06T01:30:28.548Z,9.92
2022-10-06T01:32:55.024Z,10.08
2022-10-06T01:35:21.754Z,10.00
2022-10-06T01:37:48.122Z,9.89
2022-10-06T01:40:14.588Z,9.98
2022-10-06T01:42:40.911Z,9.95
2022-10-06T01:45:07.560Z,9.98
2022-10-06T01:47:34.550Z,10.01
2022-10-06T01:50:00.891Z,10.04
2022-10-06T01:52:27.347Z,10.09
2022-10-06T01:54:53.920Z,10.08
2022-10-06T01:57:21.365Z,10.00
2022-10-06T01:59:51.548Z,10.02
2022-10-06T02:02:20.977Z,9.97
2022-10-06T02:04:47.652Z,9.86
2022-10-06T02:07:13.964Z,9.87
2022-10-06T02:09:40.334Z,9.81
2022-10-06T02:12:06.663Z,9.81
2022-10-06T02:14:34.242Z,9.80
2022-10-06T02:17:00.926Z,9.76
2022-10-06T02:19:27.270Z,9.75
2022-10-06T02:21:53.906Z,9.80
2022-10-06T02:24:20.211Z,9.80
2022-10-06T02:26:46.792Z,9.80
2022-10-06T02:29:13.108Z,9.76
2022-10-06T02:31:39.526Z,9.70
2022-10-06T02:34:05.881Z,9.70
2022-10-06T02:36:32.449Z,9.58
2022-10-06T02:38:58.755Z,9.55
2022-10-06T02:41:25.668Z,9.38
2022-10-06T02:43:53.669Z,9.57
2022-10-06T02:46:20.154Z,9.48
2022-10-06T02:48:46.896Z,9.53
2022-10-06T02:51:15.628Z,9.40
2022-10-06T02:53:42.630Z,9.47
2022-10-06T02:56:13.159Z,9.04
2022-10-06T02:58:40.008Z,9.27
2022-10-06T03:01:06.576Z,9.41
2022-10-06T03:03:35.021Z,9.39
2022-10-06T03:06:02.597Z,9.35
2022-10-06T03:08:29.399Z,9.38
2022-10-06T03:10:59.657Z,9.41
2022-10-06T03:13:26.063Z,9.42
2022-10-06T03:15:52.427Z,9.42
2022-10-06T03:18:18.830Z,9.44
2022-10-06T03:20:45.152Z,9.47
2022-10-06T03:23:13.548Z,9.37
2022-10-06T03:25:40.089Z,9.14
2022-10-06T03:28:06.546Z,9.19
2022-10-06T03:30:32.956Z,9.15
2022-10-06T03:33:01.774Z,9.22
2022-10-06T03:35:28.192Z,9.17
2022-10-06T03:37:54.619Z,9.22
2022-10-06T03:40:20.936Z,9.24
2022-10-06T03:42:47.252Z,9.19
2022-10-06T03:45:13.662Z,9.03
2022-10-06T03:47:39.989Z,9.16
2022-10-06T03:50:06.593Z,9.17
2022-10-06T03:52:33.221Z,9.09
2022-10-06T03:54:59.538Z,9.10
2022-10-06T03:57:25.905Z,9.15
2022-10-06T03:59:52.327Z,9.10
2022-10-06T04:02:18.780Z,9.09
2022-10-06T04:04:50.920Z,9.13
2022-10-06T04:07:17.318Z,9.10
2022-10-06T04:09:43.633Z,9.00
2022-10-06T04:12:10.454Z,9.01
2022-10-06T04:14:37.223Z,9.03
2022-10-06T04:17:03.585Z,9.04
2022-10-06T04:19:29.941Z,8.97
2022-10-06T04:21:56.272Z,8.95
2022-10-06T04:24:22.701Z,8.93
2022-10-06T04:26:49.965Z,8.84
2022-10-06T04:29:16.330Z,8.81
2022-10-06T04:31:43.186Z,8.84
2022-10-06T04:34:10.868Z,8.66
2022-10-06T04:36:39.493Z,8.76
2022-10-06T04:39:06.204Z,8.73
2022-10-06T04:41:34.321Z,8.63
2022-10-06T04:44:01.144Z,8.73
2022-10-06T04:46:42.700Z,8.76
2022-10-06T04:49:13.551Z,8.80
2022-10-06T04:51:44.245Z,8.74
2022-10-06T04:54:12.616Z,8.63
2022-10-06T04:56:38.937Z,8.74
2022-10-06T04:59:05.280Z,8.73
2022-10-06T05:01:32.458Z,8.79
2022-10-06T05:03:59.538Z,8.80
2022-10-06T05:06:48.821Z,8.78
2022-10-06T05:09:15.933Z,8.87
2022-10-06T05:11:42.397Z,8.79
2022-10-06T05:14:23.922Z,8.81
2022-10-06T05:16:50.526Z,8.75
2022-10-06T05:19:16.968Z,8.69
2022-10-06T05:21:43.309Z,8.63
2022-10-06T05:24:09.669Z,8.70
2022-10-06T05:26:36.872Z,8.72
2022-10-06T05:29:03.525Z,8.67
2022-10-06T05:31:35.171Z,8.67
2022-10-06T05:34:07.838Z,8.68
2022-10-06T05:36:34.326Z,8.68
2022-10-06T05:39:07.194Z,8.74
2022-10-06T05:41:34.020Z,8.72
2022-10-06T05:44:00.425Z,8.78
2022-10-06T05:46:28.555Z,8.87
2022-10-06T05:48:56.505Z,8.95
2022-10-06T05:51:29.361Z,9.01
2022-10-06T05:53:56.920Z,9.03
2022-10-06T05:56:30.904Z,9.08
2022-10-06T05:58:57.785Z,9.12
2022-10-06T06:01:38.251Z,9.01
2022-10-06T06:04:06.596Z,9.09
2022-10-06T06:06:35.239Z,9.10
2022-10-06T06:09:18.185Z,9.05
2022-10-06T06:11:45.729Z,9.19
2022-10-06T06:14:16.232Z,9.29
2022-10-06T06:16:43.268Z,9.40
2022-10-06T06:19:10.787Z,9.35
2022-10-06T06:21:37.136Z,9.51
2022-10-06T06:24:04.276Z,9.61
2022-10-06T06:26:32.098Z,9.53
2022-10-06T06:29:06.205Z,9.67
2022-10-06T06:31:43.683Z,9.70
2022-10-06T06:34:12.033Z,9.79
2022-10-06T06:36:41.057Z,9.91
2022-10-06T06:39:09.552Z,9.93
2022-10-06T06:41:38.017Z,9.80
2022-10-06T06:44:04.704Z,9.88
2022-10-06T06:49:04.748Z,10.05
2022-10-06T06:51:40.183Z,10.16
2022-10-06T06:54:07.259Z,10.30
2022-10-06T06:56:35.547Z,10.44
2022-10-06T06:59:02.807Z,10.55
2022-10-06T07:01:29.186Z,10.63
2022-10-06T07:03:58.009Z,10.68
2022-10-06T07:06:28.570Z,10.70
2022-10-06T07:08:56.076Z,10.75
2022-10-06T07:11:24.149Z,10.79
2022-10-06T07:13:54.651Z,10.83
2022-10-06T07:16:40.643Z,10.84
2022-10-06T07:19:25.693Z,10.89
2022-10-06T07:22:15.623Z,10.96
2022-10-06T07:25:00.925Z,10.96
2022-10-06T07:27:28.691Z,10.93
2022-10-06T07:29:56.685Z,10.93
2022-10-06T07:32:29.520Z,11.08
2022-10-06T07:34:58.602Z,11.14
2022-10-06T07:37:25.515Z,11.19
2022-10-06T07:39:56.867Z,11.24
2022-10-06T07:42:23.579Z,11.33
2022-10-06T07:45:08.636Z,11.43
2022-10-06T07:47:38.155Z,11.58
2022-10-06T07:50:08.250Z,11.67
2022-10-06T07:52:36.479Z,11.76
2022-10-06T07:55:02.951Z,11.82
2022-10-06T07:57:32.681Z,11.87
2022-10-06T08:00:03.085Z,11.94
2022-10-06T08:02:34.709Z,11.97
2022-10-06T08:05:02.516Z,11.91
2022-10-06T08:07:28.929Z,11.97
2022-10-06T08:09:55.326Z,12.01
2022-10-06T08:12:33.902Z,12.22
2022-10-06T08:15:07.076Z,12.30
2022-10-06T08:17:35.369Z,12.34
2022-10-06T08:20:01.913Z,12.42
2022-10-06T08:22:30.089Z,12.54
2022-10-06T08:25:05.782Z,12.68
2022-10-06T08:27:34.915Z,12.77
2022-10-06T08:30:01.676Z,12.76
2022-10-06T08:32:28.058Z,12.77
2022-10-06T08:34:54.603Z,12.65
2022-10-06T08:37:23.740Z,12.77
2022-10-06T08:39:51.108Z,12.76
2022-10-06T08:42:24.807Z,12.81
2022-10-06T08:44:58.203Z,12.89
2022-10-06T08:47:27.260Z,12.98
2022-10-06T08:50:00.143Z,13.06
2022-10-06T08:52:46.894Z,13.09
2022-10-06T08:55:32.414Z,13.28
2022-10-06T08:58:07.987Z,13.29
2022-10-06T09:00:34.412Z,13.53
2022-10-06T09:03:03.763Z,13.49
2022-10-06T09:05:31.858Z,13.48
2022-10-06T09:08:18.039Z,13.52
2022-10-06T09:10:53.799Z,13.80
2022-10-06T09:13:25.375Z,13.88
2022-10-06T09:16:07.428Z,13.75
2022-10-06T09:18:56.505Z,13.87
2022-10-06T09:21:35.287Z,13.88
2022-10-06T09:24:05.215Z,13.99
2022-10-06T09:26:41.018Z,14.13
2022-10-06T09:29:07.331Z,14.27
2022-10-06T09:31:37.956Z,14.33
2022-10-06T09:34:12.907Z,14.33
2022-10-06T09:37:05.748Z,14.47
2022-10-06T09:39:36.308Z,14.51
2022-10-06T09:42:15.145Z,14.51
2022-10-06T09:44:42.199Z,14.67
2022-10-06T09:47:25.133Z,14.77
2022-10-06T09:50:20.361Z,14.94
2022-10-06T09:53:03.366Z,14.97
2022-10-06T09:55:39.885Z,15.12
2022-10-06T09:58:20.634Z,15.15
2022-10-06T10:00:51.344Z,15.31
2022-10-06T10:03:18.127Z,15.29
2022-10-06T10:05:49.608Z,15.42
2022-10-06T10:08:15.932Z,15.47
2022-10-06T10:10:44.296Z,15.51
2022-10-06T10:13:19.490Z,15.51
2022-10-06T10:15:52.353Z,15.35
2022-10-06T10:18:22.933Z,15.51
2022-10-06T10:21:06.087Z,15.65
2022-10-06T10:23:43.394Z,15.69
2022-10-06T10:26:35.617Z,15.90
2022-10-06T10:29:11.042Z,15.68
2022-10-06T10:31:51.745Z,15.64
2022-10-06T10:34:27.184Z,15.47
2022-10-06T10:37:10.174Z,15.73
2022-10-06T10:39:48.291Z,15.89
2022-10-06T10:42:18.952Z,15.99
2022-10-06T10:44:56.323Z,16.34
2022-10-06T10:47:29.217Z,16.53
2022-10-06T10:50:16.250Z,17.09
2022-10-06T10:52:44.385Z,17.04
2022-10-06T10:55:17.957Z,17.37
2022-10-06T10:57:46.870Z,17.44
2022-10-06T11:00:28.066Z,17.47
2022-10-06T11:02:56.688Z,17.38
2022-10-06T11:05:30.432Z,17.61
2022-10-06T11:08:02.165Z,17.66
2022-10-06T11:10:32.077Z,17.85
2022-10-06T11:13:10.981Z,17.88
2022-10-06T11:15:55.960Z,17.96
2022-10-06T11:18:43.433Z,18.10
2022-10-06T11:21:25.205Z,18.12
2022-10-06T11:23:53.548Z,17.85
2022-10-06T11:26:29.063Z,18.43
2022-10-06T11:29:08.739Z,18.36
2022-10-06T11:31:48.204Z,18.61
2022-10-06T11:34:14.619Z,18.79
2022-10-06T11:37:04.033Z,19.00
2022-10-06T11:39:57.887Z,18.63
2022-10-06T11:42:34.379Z,18.78
2022-10-06T11:45:14.908Z,18.69
2022-10-06T11:47:44.383Z,18.29
2022-10-06T11:50:29.779Z,17.99
2022-10-06T11:52:56.115Z,18.04
2022-10-06T11:55:24.024Z,18.00
2022-10-06T11:58:23.550Z,18.06
2022-10-06T12:00:54.629Z,18.34
2022-10-06T12:03:45.318Z,18.13
2022-10-06T12:06:30.689Z,18.03
2022-10-06T12:08:57.001Z,17.54
2022-10-06T12:11:39.451Z,17.80
2022-10-06T12:15:31.891Z,18.01
2022-10-06T12:17:16.814Z,18.22
2022-10-06T12:20:08.514Z,18.41
2022-10-06T12:22:40.902Z,18.40
2022-10-06T12:25:28.002Z,18.48
2022-10-06T12:28:17.366Z,18.40
2022-10-06T12:30:55.076Z,18.44
2022-10-06T12:33:34.647Z,18.23
2022-10-06T12:36:05.177Z,18.54
2022-10-06T12:38:33.646Z,18.62
2022-10-06T12:41:01.621Z,18.83
2022-10-06T12:43:32.863Z,18.74
2022-10-06T12:46:07.982Z,18.53
2022-10-06T12:48:37.215Z,18.76
2022-10-06T12:51:06.576Z,18.84
2022-10-06T12:53:37.883Z,18.56
2022-10-06T12:56:05.943Z,18.80
2022-10-06T12:58:33.837Z,18.86
2022-10-06T13:01:01.281Z,18.86
2022-10-06T13:03:28.880Z,18.97
2022-10-06T13:05:57.806Z,18.93
2022-10-06T13:08:28.400Z,19.00
2022-10-06T13:11:13.862Z,18.83
2022-10-06T13:13:47.251Z,18.58
2022-10-06T13:16:14.849Z,18.54
2022-10-06T13:18:41.784Z,18.85
2022-10-06T13:21:14.229Z,18.69
2022-10-06T13:23:40.598Z,18.55
2022-10-06T13:26:06.895Z,18.85
2022-10-06T13:28:34.246Z,18.48
2022-10-06T13:31:22.034Z,18.53
2022-10-06T13:34:12.631Z,18.72
2022-10-06T13:36:40.216Z,18.73
2022-10-06T13:39:11.874Z,18.74
2022-10-06T13:41:43.570Z,18.66
2022-10-06T13:44:16.804Z,18.67
2022-10-06T13:46:45.944Z,18.88
2022-10-06T13:49:25.369Z,18.69
2022-10-06T13:51:56.881Z,18.65
2022-10-06T13:55:00.823Z,18.79
2022-10-06T13:57:36.632Z,18.66
2022-10-06T14:00:12.327Z,18.62
2022-10-06T14:02:38.883Z,18.61
2022-10-06T14:05:24.133Z,18.76
2022-10-06T14:07:50.802Z,18.74
2022-10-06T14:10:28.168Z,18.76
2022-10-06T14:12:54.900Z,18.56
2022-10-06T14:15:24.357Z,18.72
2022-10-06T14:17:58.728Z,18.55
2022-10-06T14:20:41.629Z,18.35
2022-10-06T14:23:26.884Z,18.36
2022-10-06T14:25:53.269Z,18.19
2022-10-06T14:28:19.630Z,18.20
2022-10-06T14:30:47.041Z,18.34
2022-10-06T14:33:13.441Z,18.47
2022-10-06T14:35:39.885Z,18.41
2022-10-06T14:38:06.198Z,18.62
2022-10-06T14:40:32.512Z,18.47
2022-10-06T14:42:59.887Z,18.39
2022-10-06T14:45:26.209Z,18.30
2022-10-06T14:47:52.566Z,18.41
2022-10-06T14:50:18.894Z,18.45
2022-10-06T14:52:46.747Z,18.32
2022-10-06T14:55:13.135Z,18.27
2022-10-06T14:57:39.751Z,18.22
2022-10-06T15:00:08.703Z,18.16
2022-10-06T15:02:36.293Z,18.09
2022-10-06T15:05:02.657Z,18.02
2022-10-06T15:08:03.176Z,18.00
2022-10-06T15:10:30.226Z,18.05
2022-10-06T15:12:57.184Z,18.14
2022-10-06T15:15:23.607Z,17.97
2022-10-06T15:17:50.013Z,17.89
2022-10-06T15:20:17.717Z,17.80
2022-10-06T15:22:44.520Z,17.69
2022-10-06T15:25:29.859Z,17.60
2022-10-06T15:28:15.895Z,17.51
2022-10-06T15:30:43.926Z,17.42
2022-10-06T15:33:10.251Z,17.47
2022-10-06T15:35:36.593Z,17.27
2022-10-06T15:38:02.918Z,17.18
2022-10-06T15:40:29.229Z,17.16
2022-10-06T15:42:55.556Z,17.03
2022-10-06T15:45:21.993Z,16.78
2022-10-06T15:47:48.476Z,16.65
2022-10-06T15:50:18.637Z,16.52
2022-10-06T15:52:45.850Z,16.42
2022-10-06T15:55:12.259Z,16.30
2022-10-06T15:57:38.660Z,16.20
2022-10-06T16:00:05.348Z,16.12
2022-10-06T16:02:35.530Z,15.97
2022-10-06T16:05:02.158Z,15.74
2022-10-06T16:07:31.381Z,15.68
2022-10-06T16:09:58.236Z,15.56
2022-10-06T16:12:25.218Z,15.43
2022-10-06T16:14:51.853Z,15.32
2022-10-06T16:17:20.333Z,15.22
2022-10-06T16:19:47.098Z,15.11
2022-10-06T16:22:18.090Z,14.97
2022-10-06T16:24:44.426Z,14.86
2022-10-06T16:27:11.618Z,14.74
2022-10-06T16:29:40.216Z,14.68
2022-10-06T16:32:10.822Z,14.63
2022-10-06T16:34:37.158Z,14.56
2022-10-06T16:37:03.727Z,14.49
2022-10-06T16:39:30.067Z,14.46
2022-10-06T16:41:56.761Z,14.34
2022-10-06T16:44:23.151Z,14.29
2022-10-06T16:46:52.767Z,14.21
2022-10-06T16:49:19.673Z,14.24
2022-10-06T16:51:46.181Z,14.16
2022-10-06T16:54:13.444Z,14.15
2022-10-06T16:56:48.206Z,14.01
2022-10-06T16:59:14.631Z,14.09
2022-10-06T17:01:41.261Z,14.06
2022-10-06T17:04:15.118Z,13.84
2022-10-06T17:06:44.295Z,13.60
2022-10-06T17:09:14.062Z,13.54
2022-10-06T17:11:45.267Z,13.59
2022-10-06T17:14:12.039Z,13.51
2022-10-06T17:16:46.197Z,13.33
2022-10-06T17:19:13.698Z,13.30
2022-10-06T17:21:46.851Z,13.24
2022-10-06T17:24:22.709Z,13.20
2022-10-06T17:26:49.477Z,13.21
2022-10-06T17:29:27.193Z,13.17
2022-10-06T17:31:56.546Z,13.08
2022-10-06T17:34:26.436Z,13.01
2022-10-06T17:36:59.425Z,12.93
2022-10-06T17:39:28.880Z,12.70
2022-10-06T17:42:05.281Z,12.66
2022-10-06T17:44:31.856Z,12.50
2022-10-06T17:47:00.137Z,12.43
2022-10-06T17:49:37.497Z,12.41
2022-10-06T17:52:05.813Z,12.31
2022-10-06T17:54:32.530Z,12.16
2022-10-06T17:56:59.284Z,12.20
2022-10-06T17:59:39.855Z,12.24
2022-10-06T18:02:18.102Z,12.15
2022-10-06T18:04:50.326Z,12.08
2022-10-06T18:07:17.880Z,12.14
2022-10-06T18:10:04.175Z,12.03
2022-10-06T18:12:36.146Z,11.81
2022-10-06T18:15:05.897Z,11.91
2022-10-06T18:17:34.313Z,11.90
2022-10-06T18:20:13.384Z,11.89
2022-10-06T18:22:40.048Z,11.76
2022-10-06T18:25:06.820Z,11.55
2022-10-06T18:27:35.331Z,11.51
2022-10-06T18:30:01.909Z,11.50
2022-10-06T18:38:14.134Z,11.41
2022-10-06T18:40:40.714Z,11.29
2022-10-06T18:43:09.168Z,11.39
2022-10-06T18:45:54.258Z,11.26
2022-10-06T18:48:41.375Z,11.16
2022-10-06T18:51:07.694Z,11.19
2022-10-06T18:53:36.314Z,11.18
2022-10-06T18:56:02.620Z,10.92
2022-10-06T18:58:28.937Z,11.06
2022-10-06T19:00:55.966Z,10.84
2022-10-06T19:03:23.620Z,10.95
2022-10-06T19:05:54.117Z,10.58
2022-10-06T19:08:20.464Z,10.70
2022-10-06T19:11:06.881Z,10.57
2022-10-06T19:13:33.510Z,10.64
2022-10-06T19:16:00.036Z,10.53
2022-10-06T19:18:40.505Z,10.56
2022-10-06T19:21:09.663Z,10.48
2022-10-06T19:23:36.967Z,10.28
2022-10-06T19:26:06.099Z,10.35
2022-10-06T19:28:33.201Z,10.35
2022-10-06T19:31:04.437Z,10.22
2022-10-06T19:33:31.680Z,10.22
2022-10-06T19:36:00.342Z,10.21
2022-10-06T19:38:27.542Z,10.14
2022-10-06T19:40:53.937Z,10.14
2022-10-06T19:43:21.601Z,10.23
2022-10-06T19:45:57.661Z,10.23
2022-10-06T19:48:33.232Z,10.04
2022-10-06T19:50:59.537Z,9.95
2022-10-06T19:53:25.899Z,9.87
2022-10-06T19:55:59.870Z,9.77
2022-10-06T19:58:26.174Z,9.76
2022-10-06T20:00:52.497Z,9.77
2022-10-06T20:03:20.690Z,9.70
2022-10-06T20:05:47.066Z,9.65
2022-10-06T20:08:13.429Z,9.51
2022-10-06T20:10:39.836Z,9.40
2022-10-06T20:13:06.671Z,9.29
2022-10-06T20:15:34.471Z,9.41
2022-10-06T20:18:02.075Z,9.43
2022-10-06T20:20:28.395Z,9.27
2022-10-06T20:22:54.790Z,9.32
2022-10-06T20:25:21.534Z,9.38
2022-10-06T20:27:48.800Z,9.18
2022-10-06T20:30:15.154Z,9.17
2022-10-06T20:32:41.579Z,9.14
2022-10-06T20:35:08.675Z,9.02
2022-10-06T20:37:35.058Z,9.17
2022-10-06T20:40:20.105Z,8.99
2022-10-06T20:42:49.355Z,9.00
2022-10-06T20:45:15.805Z,9.04
2022-10-06T20:47:42.479Z,8.96
2022-10-06T20:50:09.352Z,9.02
2022-10-06T20:52:36.228Z,8.73
2022-10-06T20:55:04.381Z,8.85
2022-10-06T20:57:44.033Z,8.64
2022-10-06T21:00:10.808Z,8.47
2022-10-06T21:02:37.276Z,8.64
2022-10-06T21:05:03.898Z,8.60
2022-10-06T21:07:30.347Z,8.66
2022-10-06T21:09:56.951Z,8.53
2022-10-06T21:12:23.470Z,8.55
2022-10-06T21:14:50.043Z,8.58
2022-10-06T21:17:16.521Z,8.46
2022-10-06T21:19:50.035Z,8.45
2022-10-06T21:22:16.671Z,8.40
2022-10-06T21:24:43.215Z,8.46
2022-10-06T21:27:09.711Z,8.44
2022-10-06T21:29:36.490Z,8.50
2022-10-06T21:32:02.944Z,8.41
2022-10-06T21:34:29.458Z,8.23
2022-10-06T21:36:56.105Z,8.27
2022-10-06T21:39:22.539Z,8.30
2022-10-06T21:41:49.019Z,8.10
2022-10-06T21:44:16.388Z,8.22
2022-10-06T21:46:49.200Z,8.26
2022-10-06T21:49:16.860Z,8.20
2022-10-06T21:51:45.809Z,8.12
2022-10-06T21:54:13.040Z,8.04
2022-10-06T21:56:40.081Z,8.06
2022-10-06T21:59:07.131Z,8.02
2022-10-06T22:01:38.151Z,8.07
2022-10-06T22:04:05.719Z,8.09
2022-10-06T22:06:33.402Z,8.10
2022-10-06T22:09:01.315Z,8.06
2022-10-06T22:11:32.100Z,8.08
2022-10-06T22:14:02.284Z,8.08
2022-10-06T22:16:30.348Z,7.85
2022-10-06T22:18:57.151Z,7.81
2022-10-06T22:21:24.726Z,7.89
2022-10-06T22:23:58.979Z,7.73
2022-10-06T22:26:26.199Z,7.72
2022-10-06T22:28:53.527Z,7.79
2022-10-06T22:31:25.557Z,7.79
2022-10-06T22:33:53.974Z,7.73
2022-10-06T22:36:20.455Z,7.61
2022-10-06T22:38:47.266Z,7.54
2022-10-06T22:41:14.008Z,7.46
2022-10-06T22:43:40.980Z,7.54
2022-10-06T22:46:16.903Z,7.52
2022-10-06T22:48:43.399Z,7.55
2022-10-06T22:51:09.851Z,7.53
2022-10-06T22:53:36.379Z,7.33
2022-10-06T22:56:03.833Z,7.17
2022-10-06T22:58:30.427Z,7.13
2022-10-06T23:01:17.394Z,7.12
2022-10-06T23:03:44.028Z,7.25
2022-10-06T23:06:11.804Z,7.12
2022-10-06T23:08:38.663Z,7.15
2022-10-06T23:11:06.949Z,7.18
2022-10-06T23:13:33.532Z,7.11
2022-10-06T23:16:10.384Z,7.11
2022-10-06T23:18:37.932Z,7.05
2022-10-06T23:21:05.683Z,7.12
2022-10-06T23:23:32.595Z,7.14
2022-10-06T23:26:09.412Z,7.13
2022-10-06T23:28:36.222Z,6.99
2022-10-06T23:31:04.501Z,6.92
2022-10-06T23:33:32.622Z,6.79
2022-10-06T23:35:59.679Z,7.02
2022-10-06T23:38:26.195Z,7.00
2022-10-06T23:40:52.871Z,7.01
2022-10-06T23:43:19.443Z,6.95
2022-10-06T23:45:46.069Z,7.02
2022-10-06T23:48:12.635Z,6.96
2022-10-06T23:50:39.115Z,6.95
2022-10-06T23:53:06.868Z,6.87
2022-10-06T23:55:33.491Z,6.97
2022-10-06T23:57:59.917Z,6.93
